sensor_id;sensor_type;location;lat;lon;timestamp;temperature;humidity
27567;DHT22;15006;48.584;9.186;2023-07-13T00:00:47;16.70;73.40
27567;DHT22;15006;48.584;9.186;2023-07-13T00:03:13;16.70;73.40
27567;DHT22;15006;48.584;9.186;2023-07-13T00:05:40;16.70;73.40
27567;DHT22;15006;48.584;9.186;2023-07-13T00:08:07;16.70;73.90
27567;DHT22;15006;48.584;9.186;2023-07-13T00:10:39;16.60;74.00
27567;DHT22;15006;48.584;9.186;2023-07-13T00:13:07;16.50;74.10
27567;DHT22;15006;48.584;9.186;2023-07-13T00:15:34;16.50;73.90
27567;DHT22;15006;48.584;9.186;2023-07-13T00:18:01;16.40;73.90
27567;DHT22;15006;48.584;9.186;2023-07-13T00:20:27;16.30;73.90
27567;DHT22;15006;48.584;9.186;2023-07-13T00:22:53;16.20;73.90
27567;DHT22;15006;48.584;9.186;2023-07-13T00:25:21;16.20;74.40
27567;DHT22;15006;48.584;9.186;2023-07-13T00:27:48;16.10;74.60
27567;DHT22;15006;48.584;9.186;2023-07-13T00:30:14;16.00;74.40
27567;DHT22;15006;48.584;9.186;2023-07-13T00:32:40;15.90;74.40
27567;DHT22;15006;48.584;9.186;2023-07-13T00:35:07;15.90;74.70
27567;DHT22;15006;48.584;9.186;2023-07-13T00:37:34;15.80;75.10
27567;DHT22;15006;48.584;9.186;2023-07-13T00:40:03;15.80;74.40
27567;DHT22;15006;48.584;9.186;2023-07-13T00:42:32;15.80;74.00
27567;DHT22;15006;48.584;9.186;2023-07-13T00:47:47;15.80;72.90
27567;DHT22;15006;48.584;9.186;2023-07-13T00:50:15;15.80;73.20
27567;DHT22;15006;48.584;9.186;2023-07-13T00:52:45;15.70;73.10
27567;DHT22;15006;48.584;9.186;2023-07-13T00:55:13;15.70;73.20
27567;DHT22;15006;48.584;9.186;2023-07-13T00:57:41;15.70;72.70
27567;DHT22;15006;48.584;9.186;2023-07-13T01:00:07;15.70;73.20
27567;DHT22;15006;48.584;9.186;2023-07-13T01:02:41;15.70;73.60
27567;DHT22;15006;48.584;9.186;2023-07-13T01:05:10;15.60;73.70
27567;DHT22;15006;48.584;9.186;2023-07-13T01:07:38;15.50;73.70
27567;DHT22;15006;48.584;9.186;2023-07-13T01:10:04;15.50;74.10
27567;DHT22;15006;48.584;9.186;2023-07-13T01:12:31;15.40;74.40
27567;DHT22;15006;48.584;9.186;2023-07-13T01:14:58;15.30;74.90
27567;DHT22;15006;48.584;9.186;2023-07-13T01:17:27;15.30;75.50
27567;DHT22;15006;48.584;9.186;2023-07-13T01:19:54;15.20;75.50
27567;DHT22;15006;48.584;9.186;2023-07-13T01:22:20;15.10;75.60
27567;DHT22;15006;48.584;9.186;2023-07-13T01:24:51;15.10;75.80
27567;DHT22;15006;48.584;9.186;2023-07-13T01:27:21;15.00;76.20
27567;DHT22;15006;48.584;9.186;2023-07-13T01:29:51;15.00;76.90
27567;DHT22;15006;48.584;9.186;2023-07-13T01:32:23;14.90;77.30
27567;DHT22;15006;48.584;9.186;2023-07-13T01:34:53;14.80;77.90
27567;DHT22;15006;48.584;9.186;2023-07-13T01:37:20;14.80;78.30
27567;DHT22;15006;48.584;9.186;2023-07-13T01:39:47;14.80;78.50
27567;DHT22;15006;48.584;9.186;2023-07-13T01:42:13;14.70;78.80
27567;DHT22;15006;48.584;9.186;2023-07-13T01:44:40;14.70;78.90
27567;DHT22;15006;48.584;9.186;2023-07-13T01:47:06;14.70;78.90
27567;DHT22;15006;48.584;9.186;2023-07-13T01:49:32;14.60;78.80
27567;DHT22;15006;48.584;9.186;2023-07-13T01:51:58;14.60;79.00
27567;DHT22;15006;48.584;9.186;2023-07-13T01:54:24;14.60;79.20
27567;DHT22;15006;48.584;9.186;2023-07-13T01:56:50;14.60;79.30
27567;DHT22;15006;48.584;9.186;2023-07-13T01:59:16;14.50;79.10
27567;DHT22;15006;48.584;9.186;2023-07-13T02:01:43;14.50;79.10
27567;DHT22;15006;48.584;9.186;2023-07-13T02:04:09;14.50;79.20
27567;DHT22;15006;48.584;9.186;2023-07-13T02:06:35;14.40;79.20
27567;DHT22;15006;48.584;9.186;2023-07-13T02:09:00;14.40;79.30
27567;DHT22;15006;48.584;9.186;2023-07-13T02:11:27;14.30;79.30
27567;DHT22;15006;48.584;9.186;2023-07-13T02:13:59;14.20;79.30
27567;DHT22;15006;48.584;9.186;2023-07-13T02:16:29;14.10;80.10
27567;DHT22;15006;48.584;9.186;2023-07-13T02:18:55;14.10;79.50
27567;DHT22;15006;48.584;9.186;2023-07-13T02:21:22;14.00;79.60
27567;DHT22;15006;48.584;9.186;2023-07-13T02:23:49;13.90;79.80
27567;DHT22;15006;48.584;9.186;2023-07-13T02:26:16;13.90;80.70
27567;DHT22;15006;48.584;9.186;2023-07-13T02:28:42;13.80;80.00
27567;DHT22;15006;48.584;9.186;2023-07-13T02:31:09;13.70;80.00
27567;DHT22;15006;48.584;9.186;2023-07-13T02:33:37;13.60;80.30
27567;DHT22;15006;48.584;9.186;2023-07-13T02:36:04;13.50;80.60
27567;DHT22;15006;48.584;9.186;2023-07-13T02:38:32;13.50;80.60
27567;DHT22;15006;48.584;9.186;2023-07-13T02:41:00;13.40;80.80
27567;DHT22;15006;48.584;9.186;2023-07-13T02:43:27;13.30;81.00
27567;DHT22;15006;48.584;9.186;2023-07-13T02:45:53;13.30;81.10
27567;DHT22;15006;48.584;9.186;2023-07-13T02:48:19;13.20;82.10
27567;DHT22;15006;48.584;9.186;2023-07-13T02:50:45;13.10;81.50
27567;DHT22;15006;48.584;9.186;2023-07-13T02:53:11;13.10;81.60
27567;DHT22;15006;48.584;9.186;2023-07-13T02:55:38;13.00;81.60
27567;DHT22;15006;48.584;9.186;2023-07-13T02:58:05;13.00;81.60
27567;DHT22;15006;48.584;9.186;2023-07-13T03:00:31;12.90;81.80
27567;DHT22;15006;48.584;9.186;2023-07-13T03:02:57;12.80;81.80
27567;DHT22;15006;48.584;9.186;2023-07-13T03:05:24;12.80;82.00
27567;DHT22;15006;48.584;9.186;2023-07-13T03:07:50;12.70;82.10
27567;DHT22;15006;48.584;9.186;2023-07-13T03:10:16;12.60;82.30
27567;DHT22;15006;48.584;9.186;2023-07-13T03:12:42;12.60;82.60
27567;DHT22;15006;48.584;9.186;2023-07-13T03:15:08;12.60;83.00
27567;DHT22;15006;48.584;9.186;2023-07-13T03:17:35;12.50;83.40
27567;DHT22;15006;48.584;9.186;2023-07-13T03:20:01;12.50;83.90
27567;DHT22;15006;48.584;9.186;2023-07-13T03:22:27;12.40;84.30
27567;DHT22;15006;48.584;9.186;2023-07-13T03:24:55;12.40;84.60
27567;DHT22;15006;48.584;9.186;2023-07-13T03:27:21;12.40;85.40
27567;DHT22;15006;48.584;9.186;2023-07-13T03:29:47;12.40;85.80
27567;DHT22;15006;48.584;9.186;2023-07-13T03:32:13;12.40;86.00
27567;DHT22;15006;48.584;9.186;2023-07-13T03:34:39;12.40;86.30
27567;DHT22;15006;48.584;9.186;2023-07-13T03:37:05;12.40;86.50
27567;DHT22;15006;48.584;9.186;2023-07-13T03:39:31;12.50;86.80
27567;DHT22;15006;48.584;9.186;2023-07-13T03:41:57;12.50;87.00
27567;DHT22;15006;48.584;9.186;2023-07-13T03:44:23;12.50;87.30
27567;DHT22;15006;48.584;9.186;2023-07-13T03:46:49;12.60;87.50
27567;DHT22;15006;48.584;9.186;2023-07-13T03:49:15;12.60;87.70
27567;DHT22;15006;48.584;9.186;2023-07-13T03:51:41;12.70;88.10
27567;DHT22;15006;48.584;9.186;2023-07-13T03:54:07;12.70;88.10
27567;DHT22;15006;48.584;9.186;2023-07-13T03:56:33;12.80;88.50
27567;DHT22;15006;48.584;9.186;2023-07-13T03:58:59;12.80;88.50
27567;DHT22;15006;48.584;9.186;2023-07-13T04:01:26;12.80;88.10
27567;DHT22;15006;48.584;9.186;2023-07-13T04:03:52;12.90;87.60
27567;DHT22;15006;48.584;9.186;2023-07-13T04:06:21;13.00;87.20
27567;DHT22;15006;48.584;9.186;2023-07-13T04:08:52;13.00;87.30
27567;DHT22;15006;48.584;9.186;2023-07-13T04:11:22;13.10;87.40
27567;DHT22;15006;48.584;9.186;2023-07-13T04:13:50;13.10;87.10
27567;DHT22;15006;48.584;9.186;2023-07-13T04:16:18;13.20;86.60
27567;DHT22;15006;48.584;9.186;2023-07-13T04:18:45;13.20;86.80
27567;DHT22;15006;48.584;9.186;2023-07-13T04:21:12;13.30;86.50
27567;DHT22;15006;48.584;9.186;2023-07-13T04:23:39;13.30;86.20
27567;DHT22;15006;48.584;9.186;2023-07-13T04:26:06;13.40;85.80
27567;DHT22;15006;48.584;9.186;2023-07-13T04:28:33;13.40;85.60
27567;DHT22;15006;48.584;9.186;2023-07-13T04:31:00;13.50;85.70
27567;DHT22;15006;48.584;9.186;2023-07-13T04:33:27;13.60;85.50
27567;DHT22;15006;48.584;9.186;2023-07-13T04:35:55;13.60;85.50
27567;DHT22;15006;48.584;9.186;2023-07-13T04:38:29;13.80;85.60
27567;DHT22;15006;48.584;9.186;2023-07-13T04:41:00;13.80;85.40
27567;DHT22;15006;48.584;9.186;2023-07-13T04:43:28;13.80;85.40
27567;DHT22;15006;48.584;9.186;2023-07-13T04:45:55;13.90;84.80
27567;DHT22;15006;48.584;9.186;2023-07-13T04:48:22;14.00;84.60
27567;DHT22;15006;48.584;9.186;2023-07-13T04:50:55;14.10;84.80
27567;DHT22;15006;48.584;9.186;2023-07-13T04:53:21;14.10;84.60
27567;DHT22;15006;48.584;9.186;2023-07-13T04:55:47;14.20;84.60
27567;DHT22;15006;48.584;9.186;2023-07-13T04:58:13;14.20;84.90
27567;DHT22;15006;48.584;9.186;2023-07-13T05:00:39;14.30;85.20
27567;DHT22;15006;48.584;9.186;2023-07-13T05:03:05;14.40;85.10
27567;DHT22;15006;48.584;9.186;2023-07-13T05:05:32;14.40;85.00
27567;DHT22;15006;48.584;9.186;2023-07-13T05:07:58;14.50;85.30
27567;DHT22;15006;48.584;9.186;2023-07-13T05:10:24;14.50;85.40
27567;DHT22;15006;48.584;9.186;2023-07-13T05:12:50;14.50;85.50
27567;DHT22;15006;48.584;9.186;2023-07-13T05:15:17;14.60;85.50
27567;DHT22;15006;48.584;9.186;2023-07-13T05:17:47;14.60;85.50
27567;DHT22;15006;48.584;9.186;2023-07-13T05:20:15;14.70;85.30
27567;DHT22;15006;48.584;9.186;2023-07-13T05:22:42;14.70;85.00
27567;DHT22;15006;48.584;9.186;2023-07-13T05:25:09;14.80;84.40
27567;DHT22;15006;48.584;9.186;2023-07-13T05:27:36;14.90;83.00
27567;DHT22;15006;48.584;9.186;2023-07-13T05:30:03;14.90;81.70
27567;DHT22;15006;48.584;9.186;2023-07-13T05:32:31;15.00;80.60
27567;DHT22;15006;48.584;9.186;2023-07-13T05:34:57;15.10;79.90
27567;DHT22;15006;48.584;9.186;2023-07-13T05:37:23;15.20;79.40
27567;DHT22;15006;48.584;9.186;2023-07-13T05:39:49;15.20;79.40
27567;DHT22;15006;48.584;9.186;2023-07-13T05:42:15;15.30;79.10
27567;DHT22;15006;48.584;9.186;2023-07-13T05:44:41;15.40;79.10
27567;DHT22;15006;48.584;9.186;2023-07-13T05:47:07;15.50;78.60
27567;DHT22;15006;48.584;9.186;2023-07-13T05:49:33;15.50;77.50
27567;DHT22;15006;48.584;9.186;2023-07-13T05:51:59;15.60;76.90
27567;DHT22;15006;48.584;9.186;2023-07-13T05:54:25;15.70;77.30
27567;DHT22;15006;48.584;9.186;2023-07-13T05:56:51;15.70;77.10
27567;DHT22;15006;48.584;9.186;2023-07-13T05:59:17;15.80;76.80
27567;DHT22;15006;48.584;9.186;2023-07-13T06:01:44;15.90;76.20
27567;DHT22;15006;48.584;9.186;2023-07-13T06:04:09;15.90;76.10
27567;DHT22;15006;48.584;9.186;2023-07-13T06:06:36;16.00;75.80
27567;DHT22;15006;48.584;9.186;2023-07-13T06:09:02;16.10;74.80
27567;DHT22;15006;48.584;9.186;2023-07-13T06:11:28;16.20;73.90
27567;DHT22;15006;48.584;9.186;2023-07-13T06:13:56;16.20;74.20
27567;DHT22;15006;48.584;9.186;2023-07-13T06:16:22;16.30;74.60
27567;DHT22;15006;48.584;9.186;2023-07-13T06:18:48;16.40;74.00
27567;DHT22;15006;48.584;9.186;2023-07-13T06:21:17;16.50;73.20
27567;DHT22;15006;48.584;9.186;2023-07-13T06:23:48;16.50;71.90
27567;DHT22;15006;48.584;9.186;2023-07-13T06:26:15;16.70;72.00
27567;DHT22;15006;48.584;9.186;2023-07-13T06:28:41;16.80;72.30
27567;DHT22;15006;48.584;9.186;2023-07-13T06:31:09;16.80;71.30
27567;DHT22;15006;48.584;9.186;2023-07-13T06:33:36;16.90;71.10
27567;DHT22;15006;48.584;9.186;2023-07-13T06:36:04;16.90;69.50
27567;DHT22;15006;48.584;9.186;2023-07-13T06:38:31;17.00;69.50
27567;DHT22;15006;48.584;9.186;2023-07-13T06:40:58;17.10;67.50
27567;DHT22;15006;48.584;9.186;2023-07-13T06:43:23;17.10;66.40
27567;DHT22;15006;48.584;9.186;2023-07-13T06:45:55;17.20;66.00
27567;DHT22;15006;48.584;9.186;2023-07-13T06:48:21;17.30;66.20
27567;DHT22;15006;48.584;9.186;2023-07-13T06:50:49;17.40;64.70
27567;DHT22;15006;48.584;9.186;2023-07-13T06:53:16;17.50;64.60
27567;DHT22;15006;48.584;9.186;2023-07-13T06:55:44;17.70;64.20
27567;DHT22;15006;48.584;9.186;2023-07-13T06:58:10;17.80;63.20
27567;DHT22;15006;48.584;9.186;2023-07-13T07:00:36;17.90;62.40
27567;DHT22;15006;48.584;9.186;2023-07-13T07:03:02;18.00;61.90
27567;DHT22;15006;48.584;9.186;2023-07-13T07:05:28;18.20;60.80
27567;DHT22;15006;48.584;9.186;2023-07-13T07:07:55;18.20;59.40
27567;DHT22;15006;48.584;9.186;2023-07-13T07:10:21;18.40;59.80
27567;DHT22;15006;48.584;9.186;2023-07-13T07:12:47;18.40;58.70
27567;DHT22;15006;48.584;9.186;2023-07-13T07:15:14;18.50;58.40
27567;DHT22;15006;48.584;9.186;2023-07-13T07:17:40;18.60;58.50
27567;DHT22;15006;48.584;9.186;2023-07-13T07:20:06;18.70;58.40
27567;DHT22;15006;48.584;9.186;2023-07-13T07:22:33;18.80;57.70
27567;DHT22;15006;48.584;9.186;2023-07-13T07:24:59;18.90;57.80
27567;DHT22;15006;48.584;9.186;2023-07-13T07:27:25;19.00;57.60
27567;DHT22;15006;48.584;9.186;2023-07-13T07:29:51;19.20;57.10
27567;DHT22;15006;48.584;9.186;2023-07-13T07:32:18;19.30;57.30
27567;DHT22;15006;48.584;9.186;2023-07-13T07:34:45;19.40;56.60
27567;DHT22;15006;48.584;9.186;2023-07-13T07:37:12;19.60;56.20
27567;DHT22;15006;48.584;9.186;2023-07-13T07:39:39;19.80;56.00
27567;DHT22;15006;48.584;9.186;2023-07-13T07:42:06;19.80;55.40
27567;DHT22;15006;48.584;9.186;2023-07-13T07:44:32;20.00;54.00
27567;DHT22;15006;48.584;9.186;2023-07-13T07:46:59;20.10;53.90
27567;DHT22;15006;48.584;9.186;2023-07-13T07:49:26;20.20;53.50
27567;DHT22;15006;48.584;9.186;2023-07-13T07:51:53;20.30;53.60
27567;DHT22;15006;48.584;9.186;2023-07-13T07:54:19;20.40;52.90
27567;DHT22;15006;48.584;9.186;2023-07-13T07:56:45;20.60;53.00
27567;DHT22;15006;48.584;9.186;2023-07-13T07:59:11;20.70;52.50
27567;DHT22;15006;48.584;9.186;2023-07-13T08:01:37;20.80;51.90
27567;DHT22;15006;48.584;9.186;2023-07-13T08:04:03;21.00;51.30
27567;DHT22;15006;48.584;9.186;2023-07-13T08:06:31;21.20;51.70
27567;DHT22;15006;48.584;9.186;2023-07-13T08:08:59;21.50;51.00
27567;DHT22;15006;48.584;9.186;2023-07-13T08:11:25;21.70;48.50
27567;DHT22;15006;48.584;9.186;2023-07-13T08:13:52;21.90;47.70
27567;DHT22;15006;48.584;9.186;2023-07-13T08:16:18;22.00;47.70
27567;DHT22;15006;48.584;9.186;2023-07-13T08:18:44;22.20;47.80
27567;DHT22;15006;48.584;9.186;2023-07-13T08:21:09;22.30;47.70
27567;DHT22;15006;48.584;9.186;2023-07-13T08:23:36;22.50;47.60
27567;DHT22;15006;48.584;9.186;2023-07-13T08:26:02;22.70;46.60
27567;DHT22;15006;48.584;9.186;2023-07-13T08:28:30;22.80;46.20
27567;DHT22;15006;48.584;9.186;2023-07-13T08:31:02;23.10;46.40
27567;DHT22;15006;48.584;9.186;2023-07-13T08:33:29;23.30;45.20
27567;DHT22;15006;48.584;9.186;2023-07-13T08:35:55;23.40;45.20
27567;DHT22;15006;48.584;9.186;2023-07-13T08:38:21;23.60;44.90
27567;DHT22;15006;48.584;9.186;2023-07-13T08:40:55;23.70;43.70
27567;DHT22;15006;48.584;9.186;2023-07-13T08:43:28;23.70;41.40
27567;DHT22;15006;48.584;9.186;2023-07-13T08:46:50;23.80;41.60
27567;DHT22;15006;48.584;9.186;2023-07-13T08:48:59;23.90;41.40
27567;DHT22;15006;48.584;9.186;2023-07-13T08:57:27;24.20;44.20
27567;DHT22;15006;48.584;9.186;2023-07-13T08:59:55;24.40;42.50
27567;DHT22;15006;48.584;9.186;2023-07-13T09:05:25;24.90;40.70
27567;DHT22;15006;48.584;9.186;2023-07-13T09:10:53;25.20;40.00
27567;DHT22;15006;48.584;9.186;2023-07-13T09:13:48;25.20;40.30
27567;DHT22;15006;48.584;9.186;2023-07-13T09:16:24;25.20;40.50
27567;DHT22;15006;48.584;9.186;2023-07-13T09:18:54;25.30;41.60
27567;DHT22;15006;48.584;9.186;2023-07-13T09:21:29;25.40;41.70
27567;DHT22;15006;48.584;9.186;2023-07-13T09:24:21;25.50;40.40
27567;DHT22;15006;48.584;9.186;2023-07-13T09:26:48;25.80;39.30
27567;DHT22;15006;48.584;9.186;2023-07-13T09:29:34;25.80;38.40
27567;DHT22;15006;48.584;9.186;2023-07-13T09:32:06;25.60;38.40
27567;DHT22;15006;48.584;9.186;2023-07-13T09:34:33;25.40;37.80
27567;DHT22;15006;48.584;9.186;2023-07-13T09:36:59;25.20;40.10
27567;DHT22;15006;48.584;9.186;2023-07-13T09:42:22;24.80;39.50
27567;DHT22;15006;48.584;9.186;2023-07-13T09:45:02;24.70;40.70
27567;DHT22;15006;48.584;9.186;2023-07-13T09:47:30;24.70;39.00
27567;DHT22;15006;48.584;9.186;2023-07-13T09:50:03;24.80;39.70
27567;DHT22;15006;48.584;9.186;2023-07-13T09:52:49;24.90;40.70
27567;DHT22;15006;48.584;9.186;2023-07-13T09:55:36;25.10;39.40
27567;DHT22;15006;48.584;9.186;2023-07-13T09:58:11;25.20;37.60
27567;DHT22;15006;48.584;9.186;2023-07-13T10:00:44;25.30;37.80
27567;DHT22;15006;48.584;9.186;2023-07-13T10:03:23;25.20;38.40
27567;DHT22;15006;48.584;9.186;2023-07-13T10:05:53;25.10;38.00
27567;DHT22;15006;48.584;9.186;2023-07-13T10:08:29;25.10;38.30
27567;DHT22;15006;48.584;9.186;2023-07-13T10:11:09;25.10;37.40
27567;DHT22;15006;48.584;9.186;2023-07-13T10:13:40;25.20;37.10
27567;DHT22;15006;48.584;9.186;2023-07-13T10:16:09;25.30;38.30
27567;DHT22;15006;48.584;9.186;2023-07-13T10:18:48;25.50;38.90
27567;DHT22;15006;48.584;9.186;2023-07-13T10:21:21;25.70;37.10
27567;DHT22;15006;48.584;9.186;2023-07-13T10:23:55;25.80;36.80
27567;DHT22;15006;48.584;9.186;2023-07-13T10:26:33;25.90;37.10
27567;DHT22;15006;48.584;9.186;2023-07-13T10:29:09;26.00;36.40
27567;DHT22;15006;48.584;9.186;2023-07-13T10:31:38;26.00;34.80
27567;DHT22;15006;48.584;9.186;2023-07-13T10:34:04;26.10;35.20
27567;DHT22;15006;48.584;9.186;2023-07-13T10:36:34;26.20;35.30
27567;DHT22;15006;48.584;9.186;2023-07-13T10:39:06;26.30;35.80
27567;DHT22;15006;48.584;9.186;2023-07-13T10:41:39;26.40;35.70
27567;DHT22;15006;48.584;9.186;2023-07-13T10:44:18;26.60;35.40
27567;DHT22;15006;48.584;9.186;2023-07-13T10:46:53;26.80;34.00
27567;DHT22;15006;48.584;9.186;2023-07-13T10:49:21;26.80;34.20
27567;DHT22;15006;48.584;9.186;2023-07-13T10:51:47;26.70;33.90
27567;DHT22;15006;48.584;9.186;2023-07-13T10:54:18;26.50;34.50
27567;DHT22;15006;48.584;9.186;2023-07-13T10:57:06;26.40;34.50
27567;DHT22;15006;48.584;9.186;2023-07-13T10:59:36;26.30;34.60
27567;DHT22;15006;48.584;9.186;2023-07-13T11:04:41;26.10;35.50
27567;DHT22;15006;48.584;9.186;2023-07-13T11:07:19;26.00;34.80
27567;DHT22;15006;48.584;9.186;2023-07-13T11:10:03;25.80;35.20
27567;DHT22;15006;48.584;9.186;2023-07-13T11:12:52;25.70;34.60
27567;DHT22;15006;48.584;9.186;2023-07-13T11:15:43;25.50;36.50
27567;DHT22;15006;48.584;9.186;2023-07-13T11:18:23;25.50;36.00
27567;DHT22;15006;48.584;9.186;2023-07-13T11:20:51;25.50;35.90
27567;DHT22;15006;48.584;9.186;2023-07-13T11:23:20;25.50;36.00
27567;DHT22;15006;48.584;9.186;2023-07-13T11:25:53;25.40;36.40
27567;DHT22;15006;48.584;9.186;2023-07-13T11:28:26;25.30;36.40
27567;DHT22;15006;48.584;9.186;2023-07-13T11:33:53;25.20;37.70
27567;DHT22;15006;48.584;9.186;2023-07-13T11:36:28;25.30;38.30
27567;DHT22;15006;48.584;9.186;2023-07-13T11:42:05;25.70;38.10
27567;DHT22;15006;48.584;9.186;2023-07-13T11:44:34;25.90;36.60
27567;DHT22;15006;48.584;9.186;2023-07-13T11:47:09;26.10;36.70
27567;DHT22;15006;48.584;9.186;2023-07-13T11:49:55;26.30;36.50
27567;DHT22;15006;48.584;9.186;2023-07-13T11:52:23;26.50;37.90
27567;DHT22;15006;48.584;9.186;2023-07-13T11:54:56;26.70;37.80
27567;DHT22;15006;48.584;9.186;2023-07-13T12:00:09;27.40;34.40
27567;DHT22;15006;48.584;9.186;2023-07-13T12:02:42;27.60;34.60
27567;DHT22;15006;48.584;9.186;2023-07-13T12:05:15;27.90;34.20
27567;DHT22;15006;48.584;9.186;2023-07-13T12:07:44;28.10;34.00
27567;DHT22;15006;48.584;9.186;2023-07-13T12:13:00;28.10;32.20
27567;DHT22;15006;48.584;9.186;2023-07-13T12:15:43;27.90;31.40
27567;DHT22;15006;48.584;9.186;2023-07-13T12:18:22;27.80;33.40
27567;DHT22;15006;48.584;9.186;2023-07-13T12:20:50;27.90;31.80
27567;DHT22;15006;48.584;9.186;2023-07-13T12:26:03;28.10;34.00
27567;DHT22;15006;48.584;9.186;2023-07-13T12:28:36;28.30;32.80
27567;DHT22;15006;48.584;9.186;2023-07-13T12:31:29;28.50;32.40
27567;DHT22;15006;48.584;9.186;2023-07-13T12:34:07;28.60;31.60
27567;DHT22;15006;48.584;9.186;2023-07-13T12:36:53;28.70;30.60
27567;DHT22;15006;48.584;9.186;2023-07-13T12:39:25;28.80;31.50
27567;DHT22;15006;48.584;9.186;2023-07-13T12:42:21;28.90;32.00
27567;DHT22;15006;48.584;9.186;2023-07-13T12:45:16;29.10;31.50
27567;DHT22;15006;48.584;9.186;2023-07-13T12:47:50;29.40;31.10
27567;DHT22;15006;48.584;9.186;2023-07-13T12:50:22;29.70;30.60
27567;DHT22;15006;48.584;9.186;2023-07-13T12:53:01;30.00;30.90
27567;DHT22;15006;48.584;9.186;2023-07-13T12:55:29;30.30;28.80
27567;DHT22;15006;48.584;9.186;2023-07-13T12:57:59;30.50;29.90
27567;DHT22;15006;48.584;9.186;2023-07-13T13:00:31;30.70;29.30
27567;DHT22;15006;48.584;9.186;2023-07-13T13:03:05;30.70;27.80
27567;DHT22;15006;48.584;9.186;2023-07-13T13:06:07;30.60;27.50
27567;DHT22;15006;48.584;9.186;2023-07-13T13:08:59;30.30;27.30
27567;DHT22;15006;48.584;9.186;2023-07-13T13:11:27;29.90;26.80
27567;DHT22;15006;48.584;9.186;2023-07-13T13:13:54;29.50;27.60
27567;DHT22;15006;48.584;9.186;2023-07-13T13:18:56;28.90;28.70
27567;DHT22;15006;48.584;9.186;2023-07-13T13:21:25;28.80;29.50
27567;DHT22;15006;48.584;9.186;2023-07-13T13:23:52;28.90;30.00
27567;DHT22;15006;48.584;9.186;2023-07-13T13:26:19;29.10;29.50
27567;DHT22;15006;48.584;9.186;2023-07-13T13:28:47;29.30;29.20
27567;DHT22;15006;48.584;9.186;2023-07-13T13:31:16;29.50;28.40
27567;DHT22;15006;48.584;9.186;2023-07-13T13:33:43;29.50;27.90
27567;DHT22;15006;48.584;9.186;2023-07-13T13:36:16;29.40;28.00
27567;DHT22;15006;48.584;9.186;2023-07-13T13:38:43;29.30;28.00
27567;DHT22;15006;48.584;9.186;2023-07-13T13:41:11;29.30;28.50
27567;DHT22;15006;48.584;9.186;2023-07-13T13:43:39;29.30;28.20
27567;DHT22;15006;48.584;9.186;2023-07-13T13:46:32;29.40;27.60
27567;DHT22;15006;48.584;9.186;2023-07-13T13:48:58;29.30;27.90
27567;DHT22;15006;48.584;9.186;2023-07-13T13:51:24;29.30;28.10
27567;DHT22;15006;48.584;9.186;2023-07-13T13:53:51;29.40;28.30
27567;DHT22;15006;48.584;9.186;2023-07-13T13:56:18;29.60;28.30
27567;DHT22;15006;48.584;9.186;2023-07-13T13:58:45;29.90;28.60
27567;DHT22;15006;48.584;9.186;2023-07-13T14:01:22;30.20;28.60
27567;DHT22;15006;48.584;9.186;2023-07-13T14:03:50;30.50;27.70
27567;DHT22;15006;48.584;9.186;2023-07-13T14:06:19;30.90;27.30
27567;DHT22;15006;48.584;9.186;2023-07-13T14:08:46;31.20;28.10
27567;DHT22;15006;48.584;9.186;2023-07-13T14:11:14;31.50;26.80
27567;DHT22;15006;48.584;9.186;2023-07-13T14:13:45;31.60;25.90
27567;DHT22;15006;48.584;9.186;2023-07-13T14:16:20;31.40;25.40
27567;DHT22;15006;48.584;9.186;2023-07-13T14:18:49;31.10;25.40
27567;DHT22;15006;48.584;9.186;2023-07-13T14:21:17;30.70;25.60
27567;DHT22;15006;48.584;9.186;2023-07-13T14:23:46;30.30;26.80
27567;DHT22;15006;48.584;9.186;2023-07-13T14:26:15;30.10;26.50
27567;DHT22;15006;48.584;9.186;2023-07-13T14:29:17;30.00;25.80
27567;DHT22;15006;48.584;9.186;2023-07-13T14:31:43;29.80;27.50
27567;DHT22;15006;48.584;9.186;2023-07-13T14:34:13;29.60;26.50
27567;DHT22;15006;48.584;9.186;2023-07-13T14:36:42;29.30;26.70
27567;DHT22;15006;48.584;9.186;2023-07-13T14:39:18;29.10;26.80
27567;DHT22;15006;48.584;9.186;2023-07-13T14:41:54;28.70;27.10
27567;DHT22;15006;48.584;9.186;2023-07-13T14:44:26;28.40;26.70
27567;DHT22;15006;48.584;9.186;2023-07-13T14:46:56;28.10;27.10
27567;DHT22;15006;48.584;9.186;2023-07-13T14:49:32;27.80;27.20
27567;DHT22;15006;48.584;9.186;2023-07-13T14:52:08;27.60;28.00
27567;DHT22;15006;48.584;9.186;2023-07-13T14:54:36;27.50;27.90
27567;DHT22;15006;48.584;9.186;2023-07-13T14:57:12;27.50;28.50
27567;DHT22;15006;48.584;9.186;2023-07-13T14:59:40;27.60;28.70
27567;DHT22;15006;48.584;9.186;2023-07-13T15:02:30;27.70;28.50
27567;DHT22;15006;48.584;9.186;2023-07-13T15:04:58;27.60;27.90
27567;DHT22;15006;48.584;9.186;2023-07-13T15:07:24;27.70;28.30
27567;DHT22;15006;48.584;9.186;2023-07-13T15:09:51;27.90;28.40
27567;DHT22;15006;48.584;9.186;2023-07-13T15:12:17;28.00;28.30
27567;DHT22;15006;48.584;9.186;2023-07-13T15:14:44;28.00;27.90
27567;DHT22;15006;48.584;9.186;2023-07-13T15:17:36;27.90;27.50
27567;DHT22;15006;48.584;9.186;2023-07-13T15:20:15;27.70;27.60
27567;DHT22;15006;48.584;9.186;2023-07-13T15:22:42;27.60;28.90
27567;DHT22;15006;48.584;9.186;2023-07-13T15:25:16;27.60;29.20
27567;DHT22;15006;48.584;9.186;2023-07-13T15:27:44;27.50;28.90
27567;DHT22;15006;48.584;9.186;2023-07-13T15:30:11;27.40;28.90
27567;DHT22;15006;48.584;9.186;2023-07-13T15:32:37;27.20;29.40
27567;DHT22;15006;48.584;9.186;2023-07-13T15:35:03;27.00;29.50
27567;DHT22;15006;48.584;9.186;2023-07-13T15:37:29;26.70;29.60
27567;DHT22;15006;48.584;9.186;2023-07-13T15:39:55;26.50;29.90
27567;DHT22;15006;48.584;9.186;2023-07-13T15:42:23;26.20;30.50
27567;DHT22;15006;48.584;9.186;2023-07-13T15:44:49;25.90;31.00
27567;DHT22;15006;48.584;9.186;2023-07-13T15:47:15;25.80;32.20
27567;DHT22;15006;48.584;9.186;2023-07-13T15:49:42;25.70;32.30
27567;DHT22;15006;48.584;9.186;2023-07-13T15:52:18;25.70;32.90
27567;DHT22;15006;48.584;9.186;2023-07-13T15:54:46;25.70;32.70
27567;DHT22;15006;48.584;9.186;2023-07-13T15:57:13;25.60;33.00
27567;DHT22;15006;48.584;9.186;2023-07-13T15:59:40;25.70;33.20
27567;DHT22;15006;48.584;9.186;2023-07-13T16:02:19;25.70;33.20
27567;DHT22;15006;48.584;9.186;2023-07-13T16:04:47;25.80;32.60
27567;DHT22;15006;48.584;9.186;2023-07-13T16:07:15;25.90;32.60
27567;DHT22;15006;48.584;9.186;2023-07-13T16:09:46;25.90;32.60
27567;DHT22;15006;48.584;9.186;2023-07-13T16:12:15;25.80;32.50
27567;DHT22;15006;48.584;9.186;2023-07-13T16:14:41;25.80;32.50
27567;DHT22;15006;48.584;9.186;2023-07-13T16:17:14;25.70;32.70
27567;DHT22;15006;48.584;9.186;2023-07-13T16:19:41;25.60;32.80
27567;DHT22;15006;48.584;9.186;2023-07-13T16:22:15;25.60;32.60